sensor_id;sensor_type;location;lat;lon;timestamp;temperature;humidity
51837;DHT22;38941;53.254;6.600;2023-08-08T00:01:59;13.90;99.90
51837;DHT22;38941;53.254;6.600;2023-08-08T00:04:00;13.90;99.90
51837;DHT22;38941;53.254;6.600;2023-08-08T00:06:01;13.80;99.90
51837;DHT22;38941;53.254;6.600;2023-08-08T00:08:01;13.00;99.90
51837;DHT22;38941;53.254;6.600;2023-08-08T00:10:02;13.80;99.90
51837;DHT22;38941;53.254;6.600;2023-08-08T00:12:04;13.80;99.90
51837;DHT22;38941;53.254;6.600;2023-08-08T00:14:05;13.80;99.90
51837;DHT22;38941;53.254;6.600;2023-08-08T00:16:05;13.80;99.90
51837;DHT22;38941;53.254;6.600;2023-08-08T00:18:06;13.80;99.90
51837;DHT22;38941;53.254;6.600;2023-08-08T00:20:07;13.80;99.90
51837;DHT22;38941;53.254;6.600;2023-08-08T00:22:08;13.80;99.90
51837;DHT22;38941;53.254;6.600;2023-08-08T00:24:09;13.80;99.90
51837;DHT22;38941;53.254;6.600;2023-08-08T00:26:10;13.80;99.90
51837;DHT22;38941;53.254;6.600;2023-08-08T00:28:10;13.80;99.90
51837;DHT22;38941;53.254;6.600;2023-08-08T00:30:12;13.80;99.90
51837;DHT22;38941;53.254;6.600;2023-08-08T00:32:16;13.80;99.90
51837;DHT22;38941;53.254;6.600;2023-08-08T00:34:16;13.80;99.90
51837;DHT22;38941;53.254;6.600;2023-08-08T00:36:17;13.80;99.90
51837;DHT22;38941;53.254;6.600;2023-08-08T00:38:18;13.80;99.90
51837;DHT22;38941;53.254;6.600;2023-08-08T00:40:19;13.80;99.90
51837;DHT22;38941;53.254;6.600;2023-08-08T00:42:19;13.80;99.90
51837;DHT22;38941;53.254;6.600;2023-08-08T00:44:20;13.80;99.90
51837;DHT22;38941;53.254;6.600;2023-08-08T00:46:21;13.80;99.90
51837;DHT22;38941;53.254;6.600;2023-08-08T00:48:24;13.80;99.90
51837;DHT22;38941;53.254;6.600;2023-08-08T00:50:25;13.80;99.90
51837;DHT22;38941;53.254;6.600;2023-08-08T00:52:27;13.80;99.90
51837;DHT22;38941;53.254;6.600;2023-08-08T00:54:28;13.70;99.90
51837;DHT22;38941;53.254;6.600;2023-08-08T00:56:29;13.70;99.90
51837;DHT22;38941;53.254;6.600;2023-08-08T00:58:30;13.70;99.90
51837;DHT22;38941;53.254;6.600;2023-08-08T01:00:32;13.70;99.90
51837;DHT22;38941;53.254;6.600;2023-08-08T01:02:32;13.70;99.90
51837;DHT22;38941;53.254;6.600;2023-08-08T01:04:33;13.70;99.90
51837;DHT22;38941;53.254;6.600;2023-08-08T01:06:58;13.70;99.90
51837;DHT22;38941;53.254;6.600;2023-08-08T01:09:21;15.10;99.90
51837;DHT22;38941;53.254;6.600;2023-08-08T01:11:22;13.70;99.90
51837;DHT22;38941;53.254;6.600;2023-08-08T01:13:26;13.70;99.90
51837;DHT22;38941;53.254;6.600;2023-08-08T01:15:29;13.70;99.90
51837;DHT22;38941;53.254;6.600;2023-08-08T01:17:36;13.70;99.90
51837;DHT22;38941;53.254;6.600;2023-08-08T01:19:37;13.70;99.90
51837;DHT22;38941;53.254;6.600;2023-08-08T01:21:38;13.70;99.90
51837;DHT22;38941;53.254;6.600;2023-08-08T01:23:52;13.50;99.90
51837;DHT22;38941;53.254;6.600;2023-08-08T01:25:53;13.70;99.90
51837;DHT22;38941;53.254;6.600;2023-08-08T01:27:54;13.70;99.90
51837;DHT22;38941;53.254;6.600;2023-08-08T01:29:55;13.60;99.90
51837;DHT22;38941;53.254;6.600;2023-08-08T01:31:55;13.60;99.90
51837;DHT22;38941;53.254;6.600;2023-08-08T01:33:56;13.60;99.90
51837;DHT22;38941;53.254;6.600;2023-08-08T01:36:03;13.60;99.90
51837;DHT22;38941;53.254;6.600;2023-08-08T01:38:26;13.60;99.90
51837;DHT22;38941;53.254;6.600;2023-08-08T01:40:29;13.60;99.90
51837;DHT22;38941;53.254;6.600;2023-08-08T01:42:30;13.60;99.90
51837;DHT22;38941;53.254;6.600;2023-08-08T01:44:31;13.60;99.90
51837;DHT22;38941;53.254;6.600;2023-08-08T01:46:33;13.70;99.90
51837;DHT22;38941;53.254;6.600;2023-08-08T01:48:34;13.70;99.90
51837;DHT22;38941;53.254;6.600;2023-08-08T01:50:36;13.70;99.90
51837;DHT22;38941;53.254;6.600;2023-08-08T01:52:37;13.70;99.90
51837;DHT22;38941;53.254;6.600;2023-08-08T01:54:37;13.70;99.90
51837;DHT22;38941;53.254;6.600;2023-08-08T01:56:38;13.70;99.90
51837;DHT22;38941;53.254;6.600;2023-08-08T01:58:39;13.80;99.90
51837;DHT22;38941;53.254;6.600;2023-08-08T02:00:40;13.80;99.90
51837;DHT22;38941;53.254;6.600;2023-08-08T02:02:45;13.80;99.90
51837;DHT22;38941;53.254;6.600;2023-08-08T02:04:46;13.80;99.90
51837;DHT22;38941;53.254;6.600;2023-08-08T02:06:46;13.90;99.90
51837;DHT22;38941;53.254;6.600;2023-08-08T02:08:47;13.90;99.90
51837;DHT22;38941;53.254;6.600;2023-08-08T02:10:47;13.90;99.90
51837;DHT22;38941;53.254;6.600;2023-08-08T02:12:48;13.90;99.90
51837;DHT22;38941;53.254;6.600;2023-08-08T02:14:49;13.90;99.90
51837;DHT22;38941;53.254;6.600;2023-08-08T02:16:49;14.00;99.90
51837;DHT22;38941;53.254;6.600;2023-08-08T02:18:50;13.90;99.90
51837;DHT22;38941;53.254;6.600;2023-08-08T02:20:51;14.00;99.90
51837;DHT22;38941;53.254;6.600;2023-08-08T02:22:52;13.90;99.90
51837;DHT22;38941;53.254;6.600;2023-08-08T02:24:52;14.10;99.90
51837;DHT22;38941;53.254;6.600;2023-08-08T02:26:54;14.00;99.90
51837;DHT22;38941;53.254;6.600;2023-08-08T02:28:55;14.00;99.90
51837;DHT22;38941;53.254;6.600;2023-08-08T02:30:55;14.00;99.90
51837;DHT22;38941;53.254;6.600;2023-08-08T02:32:56;14.00;99.90
51837;DHT22;38941;53.254;6.600;2023-08-08T02:34:57;14.00;99.90
51837;DHT22;38941;53.254;6.600;2023-08-08T02:36:57;14.00;99.90
51837;DHT22;38941;53.254;6.600;2023-08-08T02:38:58;14.00;99.90
51837;DHT22;38941;53.254;6.600;2023-08-08T02:40:59;14.00;99.90
51837;DHT22;38941;53.254;6.600;2023-08-08T02:42:59;13.90;99.90
51837;DHT22;38941;53.254;6.600;2023-08-08T02:45:00;13.90;99.90
51837;DHT22;38941;53.254;6.600;2023-08-08T02:47:01;13.90;99.90
51837;DHT22;38941;53.254;6.600;2023-08-08T02:49:02;13.90;99.90
51837;DHT22;38941;53.254;6.600;2023-08-08T02:51:02;13.90;99.90
51837;DHT22;38941;53.254;6.600;2023-08-08T02:53:03;13.90;99.90
51837;DHT22;38941;53.254;6.600;2023-08-08T02:55:04;13.80;99.90
51837;DHT22;38941;53.254;6.600;2023-08-08T02:57:05;13.90;99.90
51837;DHT22;38941;53.254;6.600;2023-08-08T02:59:06;13.80;99.90
51837;DHT22;38941;53.254;6.600;2023-08-08T03:01:06;13.80;99.90
51837;DHT22;38941;53.254;6.600;2023-08-08T03:03:07;13.80;99.90
51837;DHT22;38941;53.254;6.600;2023-08-08T03:05:09;13.80;99.90
51837;DHT22;38941;53.254;6.600;2023-08-08T03:07:09;13.80;99.90
51837;DHT22;38941;53.254;6.600;2023-08-08T03:09:10;13.70;99.90
51837;DHT22;38941;53.254;6.600;2023-08-08T03:11:11;13.80;99.90
51837;DHT22;38941;53.254;6.600;2023-08-08T03:13:11;13.80;99.90
51837;DHT22;38941;53.254;6.600;2023-08-08T03:15:13;13.70;99.90
51837;DHT22;38941;53.254;6.600;2023-08-08T03:17:14;13.70;99.90
51837;DHT22;38941;53.254;6.600;2023-08-08T03:19:17;13.70;99.90
51837;DHT22;38941;53.254;6.600;2023-08-08T03:21:18;13.70;99.90
51837;DHT22;38941;53.254;6.600;2023-08-08T03:23:19;13.70;99.90
51837;DHT22;38941;53.254;6.600;2023-08-08T03:25:19;13.70;99.90
51837;DHT22;38941;53.254;6.600;2023-08-08T03:27:20;13.60;99.90
51837;DHT22;38941;53.254;6.600;2023-08-08T03:29:21;13.70;99.90
51837;DHT22;38941;53.254;6.600;2023-08-08T03:31:21;13.60;99.90
51837;DHT22;38941;53.254;6.600;2023-08-08T03:33:22;13.60;99.90
51837;DHT22;38941;53.254;6.600;2023-08-08T03:35:23;13.60;99.90
51837;DHT22;38941;53.254;6.600;2023-08-08T03:37:23;13.60;99.90
51837;DHT22;38941;53.254;6.600;2023-08-08T03:39:24;13.60;99.90
51837;DHT22;38941;53.254;6.600;2023-08-08T03:41:25;13.60;99.90
51837;DHT22;38941;53.254;6.600;2023-08-08T03:43:25;13.50;99.90
51837;DHT22;38941;53.254;6.600;2023-08-08T03:45:27;13.50;99.90
51837;DHT22;38941;53.254;6.600;2023-08-08T03:47:28;13.50;99.90
51837;DHT22;38941;53.254;6.600;2023-08-08T03:49:28;13.50;99.90
51837;DHT22;38941;53.254;6.600;2023-08-08T03:51:30;13.40;99.90
51837;DHT22;38941;53.254;6.600;2023-08-08T03:53:31;13.50;99.90
51837;DHT22;38941;53.254;6.600;2023-08-08T03:55:32;13.50;99.90
51837;DHT22;38941;53.254;6.600;2023-08-08T03:57:33;13.40;99.90
51837;DHT22;38941;53.254;6.600;2023-08-08T03:59:34;13.40;99.90
51837;DHT22;38941;53.254;6.600;2023-08-08T04:01:34;13.40;99.90
51837;DHT22;38941;53.254;6.600;2023-08-08T04:03:35;13.40;99.90
51837;DHT22;38941;53.254;6.600;2023-08-08T04:05:37;13.40;99.90
51837;DHT22;38941;53.254;6.600;2023-08-08T04:07:39;13.40;99.90
51837;DHT22;38941;53.254;6.600;2023-08-08T04:09:39;13.40;99.90
51837;DHT22;38941;53.254;6.600;2023-08-08T04:11:40;13.40;99.90
51837;DHT22;38941;53.254;6.600;2023-08-08T04:13:42;13.40;99.90
51837;DHT22;38941;53.254;6.600;2023-08-08T04:15:43;13.40;99.90
51837;DHT22;38941;53.254;6.600;2023-08-08T04:17:44;13.40;99.90
51837;DHT22;38941;53.254;6.600;2023-08-08T04:19:45;13.30;99.90
51837;DHT22;38941;53.254;6.600;2023-08-08T04:21:45;13.30;99.90
51837;DHT22;38941;53.254;6.600;2023-08-08T04:23:46;13.30;99.90
51837;DHT22;38941;53.254;6.600;2023-08-08T04:25:47;13.30;99.90
51837;DHT22;38941;53.254;6.600;2023-08-08T04:27:48;13.40;99.90
51837;DHT22;38941;53.254;6.600;2023-08-08T04:29:48;13.40;99.90
51837;DHT22;38941;53.254;6.600;2023-08-08T04:31:49;13.40;99.90
51837;DHT22;38941;53.254;6.600;2023-08-08T04:33:50;13.30;99.90
51837;DHT22;38941;53.254;6.600;2023-08-08T04:35:50;13.30;99.90
51837;DHT22;38941;53.254;6.600;2023-08-08T04:37:51;13.40;99.90
51837;DHT22;38941;53.254;6.600;2023-08-08T04:39:52;13.40;99.90
51837;DHT22;38941;53.254;6.600;2023-08-08T04:41:53;13.40;99.90
51837;DHT22;38941;53.254;6.600;2023-08-08T04:43:53;13.40;99.90
51837;DHT22;38941;53.254;6.600;2023-08-08T04:45:55;13.40;99.90
51837;DHT22;38941;53.254;6.600;2023-08-08T04:47:56;13.40;99.90
51837;DHT22;38941;53.254;6.600;2023-08-08T04:49:56;13.40;99.90
51837;DHT22;38941;53.254;6.600;2023-08-08T04:51:57;13.40;99.90
51837;DHT22;38941;53.254;6.600;2023-08-08T04:53:58;13.50;99.90
51837;DHT22;38941;53.254;6.600;2023-08-08T04:55:58;13.50;99.90
51837;DHT22;38941;53.254;6.600;2023-08-08T04:58:00;13.60;99.90
51837;DHT22;38941;53.254;6.600;2023-08-08T05:00:01;13.60;99.90
51837;DHT22;38941;53.254;6.600;2023-08-08T05:02:05;13.70;99.90
51837;DHT22;38941;53.254;6.600;2023-08-08T05:04:06;13.70;99.90
51837;DHT22;38941;53.254;6.600;2023-08-08T05:06:06;13.70;99.90
51837;DHT22;38941;53.254;6.600;2023-08-08T05:08:07;13.80;99.90
51837;DHT22;38941;53.254;6.600;2023-08-08T05:10:08;13.80;99.90
51837;DHT22;38941;53.254;6.600;2023-08-08T05:12:09;13.80;99.90
51837;DHT22;38941;53.254;6.600;2023-08-08T05:14:09;13.80;99.90
51837;DHT22;38941;53.254;6.600;2023-08-08T05:16:10;13.80;99.90
51837;DHT22;38941;53.254;6.600;2023-08-08T05:18:11;13.90;99.90
51837;DHT22;38941;53.254;6.600;2023-08-08T05:20:11;13.90;99.90
51837;DHT22;38941;53.254;6.600;2023-08-08T05:22:12;13.90;99.90
51837;DHT22;38941;53.254;6.600;2023-08-08T05:24:13;13.90;99.90
51837;DHT22;38941;53.254;6.600;2023-08-08T05:26:15;14.00;99.90
51837;DHT22;38941;53.254;6.600;2023-08-08T05:28:15;14.00;99.90
51837;DHT22;38941;53.254;6.600;2023-08-08T05:30:16;14.00;99.90
51837;DHT22;38941;53.254;6.600;2023-08-08T05:32:17;14.10;99.90
51837;DHT22;38941;53.254;6.600;2023-08-08T05:34:17;14.20;99.90
51837;DHT22;38941;53.254;6.600;2023-08-08T05:36:18;14.20;99.90
51837;DHT22;38941;53.254;6.600;2023-08-08T05:38:19;14.20;99.90
51837;DHT22;38941;53.254;6.600;2023-08-08T05:40:19;14.30;99.90
51837;DHT22;38941;53.254;6.600;2023-08-08T05:42:20;14.30;99.90
51837;DHT22;38941;53.254;6.600;2023-08-08T05:44:20;14.30;99.90
51837;DHT22;38941;53.254;6.600;2023-08-08T05:46:21;14.30;99.90
51837;DHT22;38941;53.254;6.600;2023-08-08T05:48:22;14.20;99.90
51837;DHT22;38941;53.254;6.600;2023-08-08T05:50:23;14.20;99.90
51837;DHT22;38941;53.254;6.600;2023-08-08T05:52:23;14.20;99.90
51837;DHT22;38941;53.254;6.600;2023-08-08T05:54:24;14.20;99.90
51837;DHT22;38941;53.254;6.600;2023-08-08T05:56:24;14.20;99.90
51837;DHT22;38941;53.254;6.600;2023-08-08T05:58:25;14.20;99.90
51837;DHT22;38941;53.254;6.600;2023-08-08T06:00:26;14.20;99.90
51837;DHT22;38941;53.254;6.600;2023-08-08T06:02:27;14.20;99.90
51837;DHT22;38941;53.254;6.600;2023-08-08T06:04:27;14.20;99.90
51837;DHT22;38941;53.254;6.600;2023-08-08T06:06:28;14.20;99.90
51837;DHT22;38941;53.254;6.600;2023-08-08T06:08:29;14.20;99.90
51837;DHT22;38941;53.254;6.600;2023-08-08T06:10:29;14.30;99.90
51837;DHT22;38941;53.254;6.600;2023-08-08T06:12:30;14.40;99.90
51837;DHT22;38941;53.254;6.600;2023-08-08T06:14:31;14.60;99.90
51837;DHT22;38941;53.254;6.600;2023-08-08T06:16:31;14.70;99.90
51837;DHT22;38941;53.254;6.600;2023-08-08T06:18:33;14.80;99.90
51837;DHT22;38941;53.254;6.600;2023-08-08T06:20:35;14.90;99.90
51837;DHT22;38941;53.254;6.600;2023-08-08T06:22:36;15.00;99.90
51837;DHT22;38941;53.254;6.600;2023-08-08T06:24:37;15.10;99.90
51837;DHT22;38941;53.254;6.600;2023-08-08T06:26:39;15.20;99.90
51837;DHT22;38941;53.254;6.600;2023-08-08T06:28:40;15.20;99.90
51837;DHT22;38941;53.254;6.600;2023-08-08T06:30:40;15.30;99.90
51837;DHT22;38941;53.254;6.600;2023-08-08T06:32:41;15.40;99.90
51837;DHT22;38941;53.254;6.600;2023-08-08T06:34:42;15.50;99.90
51837;DHT22;38941;53.254;6.600;2023-08-08T06:36:42;15.60;99.90
51837;DHT22;38941;53.254;6.600;2023-08-08T06:38:43;15.60;99.90
51837;DHT22;38941;53.254;6.600;2023-08-08T06:40:44;15.70;99.90
51837;DHT22;38941;53.254;6.600;2023-08-08T06:42:44;15.70;99.90
51837;DHT22;38941;53.254;6.600;2023-08-08T06:44:46;15.80;99.90
51837;DHT22;38941;53.254;6.600;2023-08-08T06:46:47;15.90;99.90
51837;DHT22;38941;53.254;6.600;2023-08-08T06:48:47;16.00;99.90
51837;DHT22;38941;53.254;6.600;2023-08-08T06:50:48;16.10;99.90
51837;DHT22;38941;53.254;6.600;2023-08-08T06:52:49;16.20;99.90
51837;DHT22;38941;53.254;6.600;2023-08-08T06:54:50;16.20;99.90
51837;DHT22;38941;53.254;6.600;2023-08-08T06:56:50;16.20;99.90
51837;DHT22;38941;53.254;6.600;2023-08-08T06:58:51;16.30;99.90
51837;DHT22;38941;53.254;6.600;2023-08-08T07:00:52;16.40;99.90
51837;DHT22;38941;53.254;6.600;2023-08-08T07:02:53;16.50;99.90
51837;DHT22;38941;53.254;6.600;2023-08-08T07:04:54;16.50;99.90
51837;DHT22;38941;53.254;6.600;2023-08-08T07:06:54;16.60;99.90
51837;DHT22;38941;53.254;6.600;2023-08-08T07:08:55;16.70;99.90
51837;DHT22;38941;53.254;6.600;2023-08-08T07:10:57;16.80;99.90
51837;DHT22;38941;53.254;6.600;2023-08-08T07:12:58;16.80;99.90
51837;DHT22;38941;53.254;6.600;2023-08-08T07:14:58;16.90;99.90
51837;DHT22;38941;53.254;6.600;2023-08-08T07:17:00;16.90;99.90
51837;DHT22;38941;53.254;6.600;2023-08-08T07:19:04;17.00;99.90
51837;DHT22;38941;53.254;6.600;2023-08-08T07:21:06;17.10;99.90
51837;DHT22;38941;53.254;6.600;2023-08-08T07:23:07;17.10;99.90
51837;DHT22;38941;53.254;6.600;2023-08-08T07:25:08;17.30;99.90
51837;DHT22;38941;53.254;6.600;2023-08-08T07:27:09;17.20;99.90
51837;DHT22;38941;53.254;6.600;2023-08-08T07:29:09;17.30;99.90
51837;DHT22;38941;53.254;6.600;2023-08-08T07:31:11;17.50;99.90
51837;DHT22;38941;53.254;6.600;2023-08-08T07:33:12;17.50;99.90
51837;DHT22;38941;53.254;6.600;2023-08-08T07:35:14;17.60;99.90
51837;DHT22;38941;53.254;6.600;2023-08-08T07:37:15;17.50;99.90
51837;DHT22;38941;53.254;6.600;2023-08-08T07:39:16;17.50;99.90
51837;DHT22;38941;53.254;6.600;2023-08-08T07:41:17;17.50;99.90
51837;DHT22;38941;53.254;6.600;2023-08-08T07:43:18;17.60;99.90
51837;DHT22;38941;53.254;6.600;2023-08-08T07:45:21;17.70;99.90
51837;DHT22;38941;53.254;6.600;2023-08-08T07:47:21;17.70;99.90
51837;DHT22;38941;53.254;6.600;2023-08-08T07:49:22;17.80;99.90
51837;DHT22;38941;53.254;6.600;2023-08-08T07:51:23;17.70;99.90
51837;DHT22;38941;53.254;6.600;2023-08-08T07:53:24;17.70;99.90
51837;DHT22;38941;53.254;6.600;2023-08-08T07:55:24;17.80;99.90
51837;DHT22;38941;53.254;6.600;2023-08-08T07:57:26;17.80;99.90
51837;DHT22;38941;53.254;6.600;2023-08-08T07:59:28;17.80;99.90
51837;DHT22;38941;53.254;6.600;2023-08-08T08:01:29;17.80;99.90
51837;DHT22;38941;53.254;6.600;2023-08-08T08:03:30;17.60;99.90
51837;DHT22;38941;53.254;6.600;2023-08-08T08:05:31;17.50;99.90
51837;DHT22;38941;53.254;6.600;2023-08-08T08:07:32;17.50;99.90
51837;DHT22;38941;53.254;6.600;2023-08-08T08:09:33;17.60;99.90
51837;DHT22;38941;53.254;6.600;2023-08-08T08:11:33;17.70;99.90
51837;DHT22;38941;53.254;6.600;2023-08-08T08:13:34;17.80;99.90
51837;DHT22;38941;53.254;6.600;2023-08-08T08:15:35;17.80;99.90
51837;DHT22;38941;53.254;6.600;2023-08-08T08:17:35;17.80;99.90
51837;DHT22;38941;53.254;6.600;2023-08-08T08:19:36;17.80;99.90
51837;DHT22;38941;53.254;6.600;2023-08-08T08:21:37;17.90;99.90
51837;DHT22;38941;53.254;6.600;2023-08-08T08:23:37;18.00;99.90
51837;DHT22;38941;53.254;6.600;2023-08-08T08:25:38;18.00;99.90
51837;DHT22;38941;53.254;6.600;2023-08-08T08:27:39;17.90;99.90
51837;DHT22;38941;53.254;6.600;2023-08-08T08:29:39;17.80;99.90
51837;DHT22;38941;53.254;6.600;2023-08-08T08:31:40;17.80;99.90
51837;DHT22;38941;53.254;6.600;2023-08-08T08:33:41;17.80;99.90
51837;DHT22;38941;53.254;6.600;2023-08-08T08:35:41;17.70;99.90
51837;DHT22;38941;53.254;6.600;2023-08-08T08:37:42;17.80;99.90
51837;DHT22;38941;53.254;6.600;2023-08-08T08:39:44;17.70;99.90
51837;DHT22;38941;53.254;6.600;2023-08-08T08:41:48;17.60;99.90
51837;DHT22;38941;53.254;6.600;2023-08-08T08:43:49;17.50;99.90
51837;DHT22;38941;53.254;6.600;2023-08-08T08:45:52;17.40;99.90
51837;DHT22;38941;53.254;6.600;2023-08-08T08:47:56;17.30;99.90
51837;DHT22;38941;53.254;6.600;2023-08-08T08:49:58;17.10;99.90
51837;DHT22;38941;53.254;6.600;2023-08-08T08:51:59;17.00;99.90
51837;DHT22;38941;53.254;6.600;2023-08-08T08:54:05;16.90;99.90
51837;DHT22;38941;53.254;6.600;2023-08-08T08:56:06;16.90;99.90
51837;DHT22;38941;53.254;6.600;2023-08-08T08:58:08;17.20;99.90
51837;DHT22;38941;53.254;6.600;2023-08-08T09:00:10;17.40;99.90
51837;DHT22;38941;53.254;6.600;2023-08-08T09:02:11;17.70;99.90
51837;DHT22;38941;53.254;6.600;2023-08-08T09:04:14;17.60;99.90
51837;DHT22;38941;53.254;6.600;2023-08-08T09:06:17;17.60;99.90
51837;DHT22;38941;53.254;6.600;2023-08-08T09:08:19;17.50;99.90
51837;DHT22;38941;53.254;6.600;2023-08-08T09:10:20;17.50;99.90
51837;DHT22;38941;53.254;6.600;2023-08-08T09:12:22;17.80;99.90
51837;DHT22;38941;53.254;6.600;2023-08-08T09:14:26;18.10;99.90
51837;DHT22;38941;53.254;6.600;2023-08-08T09:16:27;18.40;99.90
51837;DHT22;38941;53.254;6.600;2023-08-08T09:18:28;18.40;99.90
51837;DHT22;38941;53.254;6.600;2023-08-08T09:20:28;18.40;99.90
51837;DHT22;38941;53.254;6.600;2023-08-08T09:22:29;18.30;99.90
51837;DHT22;38941;53.254;6.600;2023-08-08T09:24:30;18.30;99.90
51837;DHT22;38941;53.254;6.600;2023-08-08T09:26:31;18.50;99.90
51837;DHT22;38941;53.254;6.600;2023-08-08T09:28:32;18.70;99.90
51837;DHT22;38941;53.254;6.600;2023-08-08T09:30:32;18.90;99.90
51837;DHT22;38941;53.254;6.600;2023-08-08T09:32:33;19.10;99.90
51837;DHT22;38941;53.254;6.600;2023-08-08T09:34:34;19.20;99.90
51837;DHT22;38941;53.254;6.600;2023-08-08T09:36:35;19.50;99.90
51837;DHT22;38941;53.254;6.600;2023-08-08T09:38:37;19.90;99.90
51837;DHT22;38941;53.254;6.600;2023-08-08T09:40:39;20.00;99.90
51837;DHT22;38941;53.254;6.600;2023-08-08T09:42:40;20.30;99.90
51837;DHT22;38941;53.254;6.600;2023-08-08T09:44:42;19.70;99.90
51837;DHT22;38941;53.254;6.600;2023-08-08T09:46:43;19.40;99.90
51837;DHT22;38941;53.254;6.600;2023-08-08T09:48:44;19.30;99.90
51837;DHT22;38941;53.254;6.600;2023-08-08T09:50:45;19.10;99.90
51837;DHT22;38941;53.254;6.600;2023-08-08T09:52:47;19.00;99.90
51837;DHT22;38941;53.254;6.600;2023-08-08T09:54:49;19.00;99.90
51837;DHT22;38941;53.254;6.600;2023-08-08T09:56:50;18.90;99.90
51837;DHT22;38941;53.254;6.600;2023-08-08T09:58:52;18.80;99.90
51837;DHT22;38941;53.254;6.600;2023-08-08T10:00:53;18.70;99.90
51837;DHT22;38941;53.254;6.600;2023-08-08T10:02:54;18.60;99.90
51837;DHT22;38941;53.254;6.600;2023-08-08T10:04:55;18.40;99.90
51837;DHT22;38941;53.254;6.600;2023-08-08T10:06:58;18.20;99.90
51837;DHT22;38941;53.254;6.600;2023-08-08T10:09:01;18.00;99.90
51837;DHT22;38941;53.254;6.600;2023-08-08T10:11:02;17.80;99.90
51837;DHT22;38941;53.254;6.600;2023-08-08T10:13:07;17.60;99.90
51837;DHT22;38941;53.254;6.600;2023-08-08T10:15:09;17.40;99.90
51837;DHT22;38941;53.254;6.600;2023-08-08T10:17:14;17.20;99.90
51837;DHT22;38941;53.254;6.600;2023-08-08T10:19:21;17.00;99.90
51837;DHT22;38941;53.254;6.600;2023-08-08T10:21:24;16.90;99.90
51837;DHT22;38941;53.254;6.600;2023-08-08T10:23:24;16.90;99.90
51837;DHT22;38941;53.254;6.600;2023-08-08T10:25:26;17.00;99.90
51837;DHT22;38941;53.254;6.600;2023-08-08T10:27:31;17.30;99.90
51837;DHT22;38941;53.254;6.600;2023-08-08T10:29:33;17.60;99.90
51837;DHT22;38941;53.254;6.600;2023-08-08T10:31:34;18.00;99.90
51837;DHT22;38941;53.254;6.600;2023-08-08T10:33:42;18.30;99.90
51837;DHT22;38941;53.254;6.600;2023-08-08T10:36:03;18.80;99.90
51837;DHT22;38941;53.254;6.600;2023-08-08T10:38:08;19.20;99.90
51837;DHT22;38941;53.254;6.600;2023-08-08T10:40:09;19.60;99.90
51837;DHT22;38941;53.254;6.600;2023-08-08T10:42:18;19.90;99.90
51837;DHT22;38941;53.254;6.600;2023-08-08T10:44:25;20.10;99.90
51837;DHT22;38941;53.254;6.600;2023-08-08T10:46:30;20.30;99.90
51837;DHT22;38941;53.254;6.600;2023-08-08T10:48:32;20.50;99.90
51837;DHT22;38941;53.254;6.600;2023-08-08T10:50:39;20.70;99.90
51837;DHT22;38941;53.254;6.600;2023-08-08T10:54:54;21.00;99.90
51837;DHT22;38941;53.254;6.600;2023-08-08T10:56:58;21.40;99.90
51837;DHT22;38941;53.254;6.600;2023-08-08T10:58:59;21.70;99.90
51837;DHT22;38941;53.254;6.600;2023-08-08T11:01:00;21.60;99.90
51837;DHT22;38941;53.254;6.600;2023-08-08T11:03:02;21.70;99.90
51837;DHT22;38941;53.254;6.600;2023-08-08T11:05:06;21.60;99.90
51837;DHT22;38941;53.254;6.600;2023-08-08T11:07:07;21.50;99.90
51837;DHT22;38941;53.254;6.600;2023-08-08T11:09:09;21.60;99.90
51837;DHT22;38941;53.254;6.600;2023-08-08T11:11:10;21.80;99.90
51837;DHT22;38941;53.254;6.600;2023-08-08T11:13:11;21.90;99.90
51837;DHT22;38941;53.254;6.600;2023-08-08T11:15:11;22.00;99.90
51837;DHT22;38941;53.254;6.600;2023-08-08T11:17:13;22.30;99.90
51837;DHT22;38941;53.254;6.600;2023-08-08T11:19:14;22.90;99.90
51837;DHT22;38941;53.254;6.600;2023-08-08T11:21:16;23.00;99.90
51837;DHT22;38941;53.254;6.600;2023-08-08T11:23:17;22.70;99.90
51837;DHT22;38941;53.254;6.600;2023-08-08T11:25:18;22.70;99.90
51837;DHT22;38941;53.254;6.600;2023-08-08T11:27:19;22.50;99.90
51837;DHT22;38941;53.254;6.600;2023-08-08T11:29:19;22.10;99.90
51837;DHT22;38941;53.254;6.600;2023-08-08T11:31:20;22.00;99.90
51837;DHT22;38941;53.254;6.600;2023-08-08T11:33:22;21.80;99.90
51837;DHT22;38941;53.254;6.600;2023-08-08T11:35:24;21.90;99.90
51837;DHT22;38941;53.254;6.600;2023-08-08T11:37:25;21.80;99.90
51837;DHT22;38941;53.254;6.600;2023-08-08T11:39:26;22.20;99.90
51837;DHT22;38941;53.254;6.600;2023-08-08T11:41:27;22.60;99.90
51837;DHT22;38941;53.254;6.600;2023-08-08T11:43:28;22.50;99.90
51837;DHT22;38941;53.254;6.600;2023-08-08T11:45:29;23.10;99.90
51837;DHT22;38941;53.254;6.600;2023-08-08T11:47:32;22.60;99.90
51837;DHT22;38941;53.254;6.600;2023-08-08T11:49:42;22.70;99.90
51837;DHT22;38941;53.254;6.600;2023-08-08T11:51:43;22.60;99.90
51837;DHT22;38941;53.254;6.600;2023-08-08T11:53:49;22.50;99.90
51837;DHT22;38941;53.254;6.600;2023-08-08T11:55:51;22.40;99.90
51837;DHT22;38941;53.254;6.600;2023-08-08T11:57:54;22.10;99.90
51837;DHT22;38941;53.254;6.600;2023-08-08T11:59:57;21.60;99.80
51837;DHT22;38941;53.254;6.600;2023-08-08T12:01:58;21.30;99.90
51837;DHT22;38941;53.254;6.600;2023-08-08T12:04:05;21.30;99.90
51837;DHT22;38941;53.254;6.600;2023-08-08T12:06:14;21.30;99.90
51837;DHT22;38941;53.254;6.600;2023-08-08T12:08:19;21.40;99.90
51837;DHT22;38941;53.254;6.600;2023-08-08T12:10:26;21.70;99.90
51837;DHT22;38941;53.254;6.600;2023-08-08T12:12:27;21.80;99.90
51837;DHT22;38941;53.254;6.600;2023-08-08T12:14:29;22.00;99.90
51837;DHT22;38941;53.254;6.600;2023-08-08T12:16:30;22.40;99.90
51837;DHT22;38941;53.254;6.600;2023-08-08T12:18:33;22.30;99.00
51837;DHT22;38941;53.254;6.600;2023-08-08T12:20:35;22.00;99.50
51837;DHT22;38941;53.254;6.600;2023-08-08T12:22:36;21.60;99.50
51837;DHT22;38941;53.254;6.600;2023-08-08T12:24:37;21.30;99.90
51837;DHT22;38941;53.254;6.600;2023-08-08T12:26:38;20.90;99.90
51837;DHT22;38941;53.254;6.600;2023-08-08T12:28:39;20.90;99.90
51837;DHT22;38941;53.254;6.600;2023-08-08T12:30:40;21.10;99.90
51837;DHT22;38941;53.254;6.600;2023-08-08T12:32:40;21.20;99.90
51837;DHT22;38941;53.254;6.600;2023-08-08T12:34:41;21.40;99.90
51837;DHT22;38941;53.254;6.600;2023-08-08T12:36:42;21.80;99.90
51837;DHT22;38941;53.254;6.600;2023-08-08T12:38:43;21.90;99.90
51837;DHT22;38941;53.254;6.600;2023-08-08T12:40:44;21.60;99.90
51837;DHT22;38941;53.254;6.600;2023-08-08T12:42:44;21.40;99.90
51837;DHT22;38941;53.254;6.600;2023-08-08T12:44:45;21.20;99.90
51837;DHT22;38941;53.254;6.600;2023-08-08T12:46:47;21.40;99.90
51837;DHT22;38941;53.254;6.600;2023-08-08T12:48:48;21.40;99.90
51837;DHT22;38941;53.254;6.600;2023-08-08T12:50:49;21.30;99.90